Time;durP1;ratioP1;P1;durP2;ratioP2;P2;SDS_P1;SDS_P2;PMS_P1;PMS_P2;Temp;Humidity;BMP_temperature;BMP_pressure;BME280_temperature;BME280_humidity;BME280_pressure;Samples;Min_cycle;Max_cycle;Signal;HPM_P1;HPM_P2
2022/06/14 00:02:15;;;;;;;10.80;7.97;;;13.80;99.90;;;;;;5097438;27;20223;-76
2022/06/14 00:05:05;;;;;;;11.20;7.55;;;13.80;99.90;;;;;;5080547;28;20229;-75
2022/06/14 00:07:53;;;;;;;13.05;7.97;;;13.80;99.90;;;;;;5098773;27;20215;-75
2022/06/14 00:10:43;;;;;;;8.93;7.53;;;13.80;99.90;;;;;;5094544;27;20219;-77
2022/06/14 00:13:34;;;;;;;13.18;7.90;;;13.80;99.90;;;;;;5096682;28;20272;-75
2022/06/14 00:16:27;;;;;;;12.65;7.57;;;13.80;99.90;;;;;;5092672;28;20223;-76
2022/06/14 00:19:15;;;;;;;11.80;7.50;;;13.90;99.90;;;;;;5092687;28;20223;-76
2022/06/14 00:22:04;;;;;;;10.05;6.88;;;13.80;99.90;;;;;;5080983;28;20220;-75
2022/06/14 00:24:55;;;;;;;10.77;7.18;;;13.80;99.90;;;;;;5088548;28;20214;-76
2022/06/14 00:27:44;;;;;;;10.10;6.72;;;13.80;99.90;;;;;;5098467;28;20221;-74
2022/06/14 00:30:34;;;;;;;10.20;6.70;;;13.80;99.90;;;;;;5081157;28;20233;-74
2022/06/14 00:33:23;;;;;;;12.32;6.50;;;13.70;99.90;;;;;;5078774;28;20238;-73
2022/06/14 00:36:21;;;;;;;9.20;6.13;;;13.80;99.90;;;;;;5090170;27;20243;-74
2022/06/14 00:39:12;;;;;;;9.85;5.63;;;13.80;99.90;;;;;;5085368;28;20658;-76
2022/06/14 00:42:01;;;;;;;9.65;5.35;;;13.80;99.90;;;;;;5095567;28;20219;-73
2022/06/14 00:45:05;;;;;;;14.45;5.63;;;13.80;99.90;;;;;;5095815;28;20911;-73
2022/06/14 00:48:01;;;;;;;9.52;4.40;;;13.80;99.90;;;;;;5090626;28;20222;-75
2022/06/14 00:51:00;;;;;;;8.55;5.10;;;13.60;99.90;;;;;;5071476;28;20226;-76
2022/06/14 00:53:55;;;;;;;11.32;4.78;;;13.60;99.90;;;;;;5099159;27;20214;-76
2022/06/14 00:56:49;;;;;;;9.00;4.93;;;13.70;99.90;;;;;;5092272;28;20539;-74
2022/06/14 00:59:42;;;;;;;6.30;4.53;;;13.70;99.90;;;;;;5097128;28;20859;-74
2022/06/14 01:02:35;;;;;;;8.93;4.70;;;13.70;99.90;;;;;;5087857;28;20215;-73
2022/06/14 01:06:05;;;;;;;10.02;5.15;;;13.50;99.90;;;;;;5096106;28;20222;-73
2022/06/14 01:08:45;;;;;;;9.45;5.05;;;13.50;99.90;;;;;;5093788;28;20738;-74
2022/06/14 01:11:39;;;;;;;6.70;4.70;;;13.50;99.90;;;;;;5095792;28;20222;-74
2022/06/14 01:14:42;;;;;;;10.43;4.97;;;13.50;99.90;;;;;;5076668;28;20307;-74
2022/06/14 01:17:33;;;;;;;9.52;4.72;;;13.50;99.90;;;;;;5097498;28;20286;-74
2022/06/14 01:20:23;;;;;;;6.35;5.05;;;13.40;99.90;;;;;;5100228;27;20371;-75
2022/06/14 01:23:16;;;;;;;9.32;5.22;;;13.40;99.90;;;;;;5099526;28;20230;-75
2022/06/14 01:26:11;;;;;;;12.38;5.28;;;13.30;99.90;;;;;;5088356;27;20226;-76
2022/06/14 01:29:03;;;;;;;7.65;5.25;;;13.30;99.90;;;;;;5083331;28;21044;-74
2022/06/14 01:31:55;;;;;;;9.38;5.43;;;13.20;99.90;;;;;;5074153;28;20219;-73
2022/06/14 01:34:48;;;;;;;6.75;5.30;;;13.30;99.90;;;;;;5076920;28;20645;-74
2022/06/14 01:37:37;;;;;;;11.43;6.05;;;13.20;99.90;;;;;;5078738;28;20223;-73
2022/06/14 01:40:37;;;;;;;9.50;5.07;;;13.20;99.90;;;;;;5072822;28;20224;-73
2022/06/14 01:43:48;;;;;;;7.30;5.05;;;13.20;99.90;;;;;;5072940;28;20345;-76
2022/06/14 01:46:45;;;;;;;11.05;5.70;;;13.30;99.90;;;;;;5064651;28;20223;-75
2022/06/14 01:52:56;;;;;;;9.20;5.57;;;13.20;99.90;;;;;;5072187;28;20337;-74
2022/06/14 01:55:51;;;;;;;10.52;4.90;;;13.10;99.90;;;;;;5076751;28;20216;-75
2022/06/14 01:58:48;;;;;;;9.98;4.75;;;13.20;99.90;;;;;;5081587;28;20220;-75
2022/06/14 02:01:41;;;;;;;7.95;4.50;;;13.20;99.90;;;;;;5072018;28;20727;-75
2022/06/14 02:04:38;;;;;;;8.27;4.60;;;13.20;99.90;;;;;;5075857;28;20300;-74
2022/06/14 02:07:35;;;;;;;6.72;4.63;;;13.10;99.90;;;;;;5066338;28;20829;-75
2022/06/14 02:10:32;;;;;;;8.07;4.38;;;13.10;99.90;;;;;;5077444;28;20217;-76
2022/06/14 02:13:31;;;;;;;8.82;4.50;;;13.00;99.90;;;;;;5082071;28;20216;-76
2022/06/14 02:16:24;;;;;;;9.48;4.40;;;13.00;99.90;;;;;;5077114;28;20224;-76
2022/06/14 02:19:25;;;;;;;8.50;4.30;;;13.00;99.90;;;;;;5079433;28;20801;-76
2022/06/14 02:22:18;;;;;;;9.43;5.03;;;13.00;99.90;;;;;;5062846;28;20224;-77
2022/06/14 02:25:12;;;;;;;8.10;4.25;;;13.00;99.90;;;;;;5060755;28;20224;-75
2022/06/14 02:28:07;;;;;;;12.73;4.75;;;13.00;99.90;;;;;;5073864;28;20306;-75
2022/06/14 02:31:05;;;;;;;7.50;4.57;;;13.10;99.90;;;;;;5077841;28;20227;-76
2022/06/14 02:33:59;;;;;;;7.22;4.32;;;12.90;99.90;;;;;;5075742;28;20810;-76
2022/06/14 02:36:51;;;;;;;10.25;4.68;;;12.90;99.90;;;;;;5057640;28;20774;-74
2022/06/14 02:39:44;;;;;;;8.10;4.30;;;12.90;99.90;;;;;;5078444;28;20232;-74
2022/06/14 02:42:36;;;;;;;9.65;4.57;;;12.90;99.90;;;;;;5074462;28;20219;-76
2022/06/14 02:45:30;;;;;;;9.10;4.70;;;13.00;99.90;;;;;;5077611;28;20227;-74
2022/06/14 02:48:24;;;;;;;9.27;4.82;;;12.90;99.90;;;;;;5075654;28;20253;-76
2022/06/14 02:51:16;;;;;;;9.50;4.88;;;12.90;99.90;;;;;;5071426;28;20226;-74
2022/06/14 02:54:09;;;;;;;12.10;8.13;;;13.00;99.90;;;;;;5068741;28;20753;-75
2022/06/14 02:57:04;;;;;;;13.73;5.72;;;13.00;99.90;;;;;;5075611;28;20216;-75
2022/06/14 02:59:57;;;;;;;8.82;4.95;;;13.00;99.90;;;;;;5073881;28;20618;-76
2022/06/14 03:02:51;;;;;;;9.38;4.72;;;13.00;99.90;;;;;;5060389;28;20364;-75
2022/06/14 03:05:48;;;;;;;8.93;4.70;;;13.20;99.90;;;;;;5063045;28;20216;-76
2022/06/14 03:08:43;;;;;;;9.45;4.72;;;13.20;99.90;;;;;;5078429;28;20562;-76
2022/06/14 03:11:46;;;;;;;11.88;5.38;;;13.10;99.90;;;;;;5068568;28;20505;-75
2022/06/14 03:14:46;;;;;;;7.70;5.20;;;13.10;99.90;;;;;;5066499;28;20908;-75
2022/06/14 03:17:48;;;;;;;10.05;5.47;;;13.20;99.90;;;;;;5081234;28;20669;-76
2022/06/14 03:20:49;;;;;;;12.27;5.50;;;13.30;99.90;;;;;;5076795;28;20212;-78
2022/06/14 03:23:45;;;;;;;8.48;5.43;;;13.40;99.90;;;;;;5063372;28;20212;-76
2022/06/14 03:26:38;;;;;;;9.50;5.47;;;13.40;99.90;;;;;;5059031;28;20230;-77
2022/06/14 03:29:36;;;;;;;10.57;5.55;;;13.40;99.90;;;;;;5070914;28;20343;-76
2022/06/14 03:32:32;;;;;;;9.95;5.13;;;13.50;99.90;;;;;;5062135;28;20283;-76
2022/06/14 03:35:27;;;;;;;9.80;5.40;;;13.50;99.90;;;;;;5073924;28;20224;-75
2022/06/14 03:38:22;;;;;;;11.15;5.30;;;13.60;99.90;;;;;;5080199;28;20681;-76
2022/06/14 03:41:13;;;;;;;8.50;5.13;;;13.70;99.90;;;;;;5071882;28;20220;-77
2022/06/14 03:44:04;;;;;;;7.47;4.85;;;13.60;99.90;;;;;;5079272;28;21742;-78
2022/06/14 03:47:13;;;;;;;12.20;4.88;;;13.60;99.90;;;;;;5075334;28;20317;-77
2022/06/14 03:50:06;;;;;;;13.90;5.28;;;13.80;99.90;;;;;;5073008;28;20223;-76
2022/06/14 03:53:33;;;;;;;11.95;5.28;;;13.80;99.90;;;;;;5071161;28;20221;-76
2022/06/14 03:56:38;;;;;;;10.75;5.20;;;13.90;99.90;;;;;;5061550;28;20218;-76
2022/06/14 03:59:50;;;;;;;9.38;4.70;;;14.00;99.90;;;;;;5061787;28;20219;-78
2022/06/14 04:02:56;;;;;;;9.52;4.80;;;14.10;99.90;;;;;;5073270;28;20223;-77
2022/06/14 04:05:58;;;;;;;9.50;5.30;;;14.10;99.90;;;;;;5064025;28;20221;-77
2022/06/14 04:09:00;;;;;;;11.18;4.85;;;14.10;99.90;;;;;;5077049;28;20595;-75
2022/06/14 04:11:55;;;;;;;11.60;5.13;;;14.20;99.90;;;;;;5077060;28;20219;-74
2022/06/14 04:14:54;;;;;;;7.88;4.82;;;14.30;99.90;;;;;;5076528;28;20227;-76
2022/06/14 04:17:48;;;;;;;10.65;5.00;;;14.40;99.90;;;;;;5081862;28;20219;-73
2022/06/14 04:20:42;;;;;;;8.27;4.80;;;14.40;99.90;;;;;;5078304;28;20230;-76
2022/06/14 04:23:36;;;;;;;10.55;4.60;;;14.40;99.90;;;;;;5082448;28;20223;-76
2022/06/14 04:26:37;;;;;;;8.68;4.65;;;14.50;99.90;;;;;;5075358;28;20230;-75
2022/06/14 04:29:37;;;;;;;11.75;5.03;;;14.50;99.90;;;;;;5080343;28;20215;-77
2022/06/14 04:32:32;;;;;;;10.40;5.10;;;14.70;99.90;;;;;;5069478;28;20246;-76
2022/06/14 04:35:25;;;;;;;9.98;4.70;;;14.70;99.90;;;;;;5062097;28;20594;-76
2022/06/14 04:38:20;;;;;;;7.93;5.03;;;14.80;99.90;;;;;;5079715;28;20235;-79
2022/06/14 04:41:14;;;;;;;7.88;4.60;;;14.80;99.90;;;;;;5057470;28;20239;-77
2022/06/14 04:44:12;;;;;;;6.70;4.22;;;14.90;99.90;;;;;;5053123;28;20222;-76
2022/06/14 04:47:07;;;;;;;10.60;5.05;;;14.90;99.90;;;;;;5085234;28;20213;-75
2022/06/14 04:50:00;;;;;;;13.15;5.10;;;15.00;99.90;;;;;;5065537;28;20726;-78
2022/06/14 04:52:53;;;;;;;32.63;7.88;;;15.10;99.90;;;;;;5077789;28;20230;-77
2022/06/14 04:55:46;;;;;;;11.75;5.40;;;15.10;99.90;;;;;;5065105;28;20226;-77
2022/06/14 04:58:41;;;;;;;26.48;6.53;;;15.30;99.90;;;;;;5059034;28;20224;-75
2022/06/14 05:01:37;;;;;;;11.38;5.70;;;15.30;99.90;;;;;;5062339;28;20236;-77
2022/06/14 05:04:32;;;;;;;10.48;5.60;;;15.30;99.90;;;;;;5081377;28;20212;-74
2022/06/14 05:07:25;;;;;;;11.13;6.20;;;15.50;99.90;;;;;;5063695;28;20211;-76
2022/06/14 05:10:18;;;;;;;15.25;7.10;;;15.60;99.90;;;;;;5064903;28;20246;-76
2022/06/14 05:13:13;;;;;;;10.77;6.90;;;15.70;99.90;;;;;;5064278;28;20219;-75
2022/06/14 05:16:07;;;;;;;10.48;6.10;;;15.70;99.90;;;;;;5079493;28;20228;-76
2022/06/14 05:19:08;;;;;;;9.00;6.10;;;15.70;99.90;;;;;;5059013;28;20970;-76
2022/06/14 05:22:03;;;;;;;12.13;5.75;;;15.80;99.90;;;;;;5083134;28;20222;-76
2022/06/14 05:24:52;;;;;;;10.40;4.65;;;15.90;99.90;;;;;;5073947;28;20231;-76
2022/06/14 05:27:49;;;;;;;7.68;4.20;;;15.90;99.90;;;;;;5078309;28;20701;-76
2022/06/14 05:30:43;;;;;;;8.02;4.88;;;15.80;99.90;;;;;;5074425;28;20230;-75
2022/06/14 05:33:43;;;;;;;10.57;4.97;;;16.10;99.90;;;;;;5070692;28;20257;-75
2022/06/14 05:36:38;;;;;;;9.88;4.20;;;16.20;99.90;;;;;;5070498;28;20240;-76
2022/06/14 05:39:32;;;;;;;7.00;4.20;;;16.10;99.90;;;;;;5086339;28;20226;-73
2022/06/14 05:42:29;;;;;;;9.48;4.28;;;16.00;99.90;;;;;;5080901;28;20563;-76
2022/06/14 05:45:22;;;;;;;9.00;4.32;;;16.20;99.90;;;;;;5075854;28;20591;-77
2022/06/14 05:48:16;;;;;;;10.70;4.10;;;16.30;99.90;;;;;;5078345;28;20704;-79
2022/06/14 05:51:09;;;;;;;7.60;4.15;;;16.30;99.90;;;;;;5078868;28;20219;-78
2022/06/14 05:54:10;;;;;;;5.55;3.92;;;16.20;99.90;;;;;;5060824;28;20810;-78
2022/06/14 05:57:04;;;;;;;6.68;3.72;;;16.40;99.90;;;;;;5074545;28;20243;-79
2022/06/14 05:59:58;;;;;;;5.80;3.47;;;16.50;99.90;;;;;;5073540;28;20237;-77
2022/06/14 06:02:52;;;;;;;6.25;3.90;;;16.50;99.90;;;;;;5066946;28;20219;-78
2022/06/14 06:05:45;;;;;;;6.10;3.15;;;16.50;99.90;;;;;;5076263;28;20227;-75
2022/06/14 06:08:38;;;;;;;6.47;3.30;;;16.70;99.90;;;;;;5085767;28;20216;-74
2022/06/14 06:11:32;;;;;;;7.53;2.83;;;16.80;99.90;;;;;;5075427;28;20723;-75
2022/06/14 06:14:30;;;;;;;4.85;2.50;;;16.80;99.90;;;;;;5065717;28;20216;-76
2022/06/14 06:17:23;;;;;;;8.48;2.22;;;17.10;99.90;;;;;;5079905;28;20223;-74
2022/06/14 06:20:21;;;;;;;5.00;2.28;;;17.10;99.90;;;;;;5078454;28;20223;-76
2022/06/14 06:23:15;;;;;;;3.53;1.98;;;17.60;99.90;;;;;;5082277;28;20276;-77
2022/06/14 06:26:05;;;;;;;6.10;2.10;;;19.10;99.90;;;;;;5070314;28;20235;-77
2022/06/14 06:29:02;;;;;;;6.25;2.20;;;19.90;99.90;;;;;;5067122;28;20266;-77
2022/06/14 06:31:51;;;;;;;4.72;2.28;;;19.10;99.90;;;;;;5076220;28;20223;-75
2022/06/14 06:34:42;;;;;;;5.25;2.00;;;18.80;99.90;;;;;;5082403;28;20255;-75
2022/06/14 06:37:37;;;;;;;6.55;2.03;;;18.50;99.90;;;;;;5080028;28;20235;-75
2022/06/14 06:40:26;;;;;;;5.30;2.00;;;18.10;99.90;;;;;;5063297;28;20238;-74
2022/06/14 06:43:15;;;;;;;4.15;1.92;;;18.00;99.90;;;;;;5067874;28;20239;-74
2022/06/14 06:46:12;;;;;;;5.82;1.85;;;17.80;99.90;;;;;;5063625;28;20314;-74
2022/06/14 06:49:02;;;;;;;6.10;2.05;;;18.10;99.90;;;;;;5080140;28;20296;-74
2022/06/14 06:51:57;;;;;;;6.88;1.80;;;18.30;99.90;;;;;;5068735;28;20219;-75
2022/06/14 06:54:49;;;;;;;3.42;1.70;;;18.30;99.90;;;;;;5083256;28;20232;-73
2022/06/14 06:57:40;;;;;;;2.65;1.85;;;18.20;99.90;;;;;;5078354;28;20220;-72
2022/06/14 07:00:30;;;;;;;6.60;1.83;;;18.20;99.90;;;;;;5077525;28;20218;-75
2022/06/14 07:03:33;;;;;;;4.07;1.85;;;18.30;99.90;;;;;;5057216;28;20224;-75
2022/06/14 07:06:27;;;;;;;2.92;1.60;;;18.60;99.90;;;;;;5080783;28;20302;-73
2022/06/14 07:09:21;;;;;;;5.60;1.80;;;18.80;99.90;;;;;;5059696;28;20216;-73
2022/06/14 07:12:15;;;;;;;3.80;1.65;;;18.70;99.90;;;;;;5068383;28;20303;-75
2022/06/14 07:15:18;;;;;;;3.55;1.48;;;18.50;99.90;;;;;;5078993;28;20224;-75
2022/06/14 07:18:14;;;;;;;9.07;1.70;;;18.60;99.90;;;;;;5074049;28;20844;-74
2022/06/14 07:21:10;;;;;;;5.20;1.70;;;18.90;99.90;;;;;;5060935;28;20295;-75
2022/06/14 07:24:04;;;;;;;3.58;1.63;;;18.70;99.90;;;;;;5072766;28;20599;-75
2022/06/14 07:26:59;;;;;;;5.50;1.83;;;19.00;99.90;;;;;;5073688;28;20231;-76
2022/06/14 07:29:52;;;;;;;5.72;1.77;;;18.60;99.90;;;;;;5071712;28;20424;-78
2022/06/14 07:32:46;;;;;;;3.28;1.77;;;18.30;99.90;;;;;;5084323;27;20241;-77
2022/06/14 07:35:43;;;;;;;5.50;1.80;;;19.00;99.90;;;;;;5085080;27;20804;-76
2022/06/14 07:38:39;;;;;;;3.70;1.38;;;20.00;99.90;;;;;;5097583;27;20207;-77
2022/06/14 07:41:40;;;;;;;6.32;2.03;;;19.90;99.90;;;;;;5079927;27;20222;-76
2022/06/14 07:44:36;;;;;;;4.45;1.50;;;20.60;99.90;;;;;;5083131;28;20222;-77
2022/06/14 07:47:34;;;;;;;3.60;1.52;;;21.60;99.90;;;;;;5079700;28;20588;-75
2022/06/14 07:50:30;;;;;;;4.35;1.70;;;22.30;99.80;;;;;;5093314;28;20234;-75
2022/06/14 07:53:23;;;;;;;4.18;1.90;;;21.20;99.80;;;;;;5080842;27;20226;-76
2022/06/14 07:56:17;;;;;;;7.82;1.80;;;20.50;99.90;;;;;;5082876;28;20226;-75
2022/06/14 07:59:11;;;;;;;8.68;1.80;;;20.90;99.90;;;;;;5097797;27;20364;-75
2022/06/14 08:02:08;;;;;;;2.70;1.30;;;22.30;99.90;;;;;;5098785;27;20215;-77
2022/06/14 08:05:00;;;;;;;4.07;1.65;;;21.60;99.90;;;;;;5082253;28;20218;-77
2022/06/14 08:07:51;;;;;;;4.43;1.48;;;21.40;99.90;;;;;;5082972;27;20331;-76
2022/06/14 08:10:46;;;;;;;3.45;1.30;;;20.80;96.10;;;;;;5097910;28;20251;-76
2022/06/14 08:13:45;;;;;;;3.28;1.30;;;20.20;98.10;;;;;;5095461;28;20223;-77
2022/06/14 08:16:34;;;;;;;5.68;1.35;;;19.90;99.90;;;;;;5087955;27;20535;-77
2022/06/14 08:19:27;;;;;;;5.93;1.60;;;19.70;99.90;;;;;;5083001;28;20735;-78
2022/06/14 08:22:19;;;;;;;5.50;1.52;;;20.40;99.90;;;;;;5096502;28;20241;-78
2022/06/14 08:25:12;;;;;;;3.15;1.60;;;20.90;99.90;;;;;;5093834;28;20255;-76
2022/06/14 08:28:06;;;;;;;5.00;1.50;;;22.70;99.50;;;;;;5084746;28;20620;-76
2022/06/14 08:30:59;;;;;;;6.68;1.65;;;23.80;91.70;;;;;;5074542;28;20304;-77
2022/06/14 08:33:58;;;;;;;4.15;1.50;;;22.20;90.50;;;;;;5066927;28;20219;-78
2022/06/14 08:36:51;;;;;;;2.97;1.50;;;21.30;92.30;;;;;;5072147;28;20243;-77
2022/06/14 08:39:46;;;;;;;4.00;1.70;;;20.70;95.80;;;;;;5050946;28;20227;-78
2022/06/14 08:42:43;;;;;;;4.40;1.52;;;20.40;99.20;;;;;;5060641;28;20212;-78
2022/06/14 08:45:37;;;;;;;6.25;1.50;;;21.10;97.90;;;;;;5060243;28;20219;-84
2022/06/14 08:48:39;;;;;;;4.72;1.70;;;22.60;92.40;;;;;;5083300;28;20227;-84
2022/06/14 08:51:34;;;;;;;2.05;1.20;;;22.90;93.70;;;;;;5064304;28;20231;-83
2022/06/14 08:54:50;;;;;;;3.60;1.20;;;23.40;83.60;;;;;;5064410;28;21023;-80
2022/06/14 08:58:04;;;;;;;4.03;1.60;;;23.00;85.50;;;;;;5078289;28;20230;-83
2022/06/14 09:01:00;;;;;;;3.28;1.40;;;21.70;86.50;;;;;;5078710;28;20361;-84
2022/06/14 09:04:33;;;;;;;3.50;1.50;;;21.90;90.40;;;;;;5078430;28;20219;-89
2022/06/14 09:07:55;;;;;;;4.10;1.70;;;24.30;81.60;;;;;;5029654;28;20223;-88
2022/06/14 09:11:09;;;;;;;2.53;1.48;;;24.90;80.70;;;;;;5092629;28;20280;-81
2022/06/14 09:14:33;;;;;;;2.45;1.30;;;26.10;75.80;;;;;;5090482;28;20630;-88
2022/06/14 09:17:46;;;;;;;4.03;1.45;;;26.40;72.50;;;;;;5086256;28;20219;-89
2022/06/14 09:21:04;;;;;;;5.65;1.35;;;24.20;72.70;;;;;;5079240;28;20211;-89
2022/06/14 09:24:17;;;;;;;6.15;1.40;;;22.80;78.60;;;;;;5084449;28;20212;-87
2022/06/14 09:27:15;;;;;;;4.18;1.45;;;23.60;80.60;;;;;;5069693;28;20277;-88
2022/06/14 09:30:31;;;;;;;7.53;1.65;;;24.60;72.60;;;;;;5092817;28;20223;-88
2022/06/14 09:33:56;;;;;;;3.90;1.65;;;26.20;70.50;;;;;;5072037;28;20230;-82
2022/06/14 09:37:16;;;;;;;3.15;1.35;;;25.80;67.10;;;;;;5084597;28;20227;-73
2022/06/14 09:40:40;;;;;;;4.80;1.50;;;24.30;69.20;;;;;;5066340;28;20227;-74
2022/06/14 09:43:57;;;;;;;4.43;1.40;;;23.60;73.50;;;;;;5079757;28;20220;-73
2022/06/14 09:47:17;;;;;;;2.30;1.30;;;22.90;76.50;;;;;;5079062;28;20307;-74
2022/06/14 09:50:36;;;;;;;2.83;1.50;;;22.20;80.90;;;;;;5080242;28;20290;-76
2022/06/14 09:53:53;;;;;;;4.15;1.48;;;21.70;83.70;;;;;;5083102;28;20223;-74
2022/06/14 09:57:06;;;;;;;3.05;1.70;;;20.80;83.20;;;;;;5081047;28;20211;-75
2022/06/14 10:00:20;;;;;;;5.95;1.83;;;20.50;85.80;;;;;;5079626;28;20219;-78
2022/06/14 10:03:53;;;;;;;9.23;1.50;;;20.10;86.50;;;;;;5078293;28;20215;-75
2022/06/14 10:07:14;;;;;;;2.65;1.33;;;20.10;88.90;;;;;;5074233;28;20215;-75
2022/06/14 10:10:44;;;;;;;4.38;1.40;;;19.90;88.50;;;;;;5066905;28;20332;-73
2022/06/14 10:14:05;;;;;;;3.75;1.65;;;19.90;90.80;;;;;;4999796;28;20266;-77
2022/06/14 10:17:30;;;;;;;5.97;1.30;;;19.80;90.70;;;;;;4994629;28;20605;-75
2022/06/14 10:20:42;;;;;;;6.00;1.55;;;19.90;90.40;;;;;;5058066;28;20227;-75
2022/06/14 10:23:44;;;;;;;6.05;1.52;;;23.00;85.60;;;;;;5070064;28;20216;-75
2022/06/14 10:30:09;;;;;;;4.38;1.70;;;28.10;59.10;;;;;;5028086;27;20222;-74
2022/06/14 10:33:22;;;;;;;5.32;1.60;;;31.60;56.00;;;;;;5095965;27;20312;-77
2022/06/14 10:36:37;;;;;;;3.33;1.27;;;34.20;51.50;;;;;;5089196;27;20230;-72
2022/06/14 10:39:51;;;;;;;4.25;1.63;;;29.40;55.60;;;;;;5100441;27;20232;-74
2022/06/14 10:42:52;;;;;;;2.72;1.20;;;26.10;60.20;;;;;;5082322;27;20588;-74
2022/06/14 10:45:46;;;;;;;4.07;1.30;;;24.40;65.90;;;;;;5098149;27;20221;-75
2022/06/14 10:49:10;;;;;;;4.35;1.45;;;23.20;68.50;;;;;;5091142;27;20218;-75
2022/06/14 10:52:40;;;;;;;4.00;1.48;;;22.40;73.40;;;;;;5091821;27;20235;-75
2022/06/14 10:55:53;;;;;;;5.68;1.52;;;21.50;77.30;;;;;;5094190;27;20261;-77
2022/06/14 10:59:25;;;;;;;5.95;1.60;;;21.20;77.20;;;;;;5095567;27;20314;-75
2022/06/14 11:02:29;;;;;;;3.90;1.50;;;21.20;80.50;;;;;;5094087;27;20684;-75
2022/06/14 11:05:26;;;;;;;5.10;2.35;;;21.30;81.50;;;;;;5096310;27;20223;-75
2022/06/14 11:08:27;;;;;;;4.85;1.42;;;21.20;80.70;;;;;;5100149;27;20219;-74
2022/06/14 11:11:40;;;;;;;3.20;1.10;;;21.00;77.60;;;;;;5099971;27;20220;-75
2022/06/14 11:14:38;;;;;;;2.50;1.20;;;20.90;77.20;;;;;;5086981;28;20222;-74
2022/06/14 11:17:44;;;;;;;4.15;1.38;;;20.90;77.50;;;;;;5097571;27;20238;-76
2022/06/14 11:20:43;;;;;;;3.42;1.77;;;21.10;77.90;;;;;;5099208;27;20226;-74
2022/06/14 11:23:42;;;;;;;4.60;1.48;;;20.70;78.20;;;;;;5084328;27;20220;-76
2022/06/14 11:26:45;;;;;;;7.43;1.50;;;21.10;79.10;;;;;;5104763;27;20577;-76
2022/06/14 11:29:42;;;;;;;3.90;1.58;;;21.30;79.70;;;;;;5068956;28;20219;-76
2022/06/14 11:32:40;;;;;;;5.25;1.10;;;20.90;78.10;;;;;;5074987;28;20223;-75
2022/06/14 12:31:53;;;;;;;5.30;1.50;;;20.60;76.80;;;;;;5052189;27;20548;-78
2022/06/14 12:34:48;;;;;;;7.00;1.52;;;20.50;80.30;;;;;;5057896;28;20253;-75
2022/06/14 12:37:43;;;;;;;6.47;1.67;;;20.20;79.70;;;;;;5040934;28;20216;-74
2022/06/14 12:40:39;;;;;;;6.82;1.58;;;20.20;79.80;;;;;;5046156;28;20217;-76
2022/06/14 12:43:38;;;;;;;6.95;1.75;;;20.10;80.00;;;;;;5049001;28;20231;-75
2022/06/14 12:46:31;;;;;;;9.13;1.52;;;20.00;81.70;;;;;;5033024;28;20241;-76
2022/06/14 13:11:58;;;;;;;4.15;1.55;;;20.00;82.70;;;;;;5024462;28;21123;-73
2022/06/14 13:14:56;;;;;;;3.63;1.65;;;20.10;82.50;;;;;;5012176;28;20273;-74
2022/06/14 13:18:06;;;;;;;3.85;1.75;;;20.30;82.30;;;;;;5014733;28;20232;-75
2022/06/14 13:20:59;;;;;;;8.13;1.40;;;20.30;82.80;;;;;;5010521;28;20352;-74
2022/06/14 13:24:01;;;;;;;5.20;1.48;;;20.10;80.90;;;;;;5017135;28;20222;-74
2022/06/14 13:27:05;;;;;;;3.17;1.48;;;20.30;82.10;;;;;;5017082;28;20225;-75
2022/06/14 13:30:03;;;;;;;4.97;1.50;;;20.50;81.30;;;;;;5018957;28;20327;-75
2022/06/14 13:33:13;;;;;;;8.05;1.60;;;20.60;81.60;;;;;;5008985;28;20695;-76
2022/06/14 13:36:09;;;;;;;6.82;1.90;;;20.70;80.80;;;;;;5014627;28;20227;-76
2022/06/14 13:39:02;;;;;;;5.03;1.50;;;20.80;81.70;;;;;;5013520;28;20506;-76
2022/06/14 13:42:03;;;;;;;10.25;1.83;;;20.70;79.60;;;;;;5010793;28;21703;-75
2022/06/14 13:44:56;;;;;;;10.27;1.77;;;20.70;79.40;;;;;;5034466;28;20243;-75
2022/06/14 13:47:53;;;;;;;8.38;1.80;;;20.80;79.10;;;;;;5034413;28;20228;-75
2022/06/14 13:50:45;;;;;;;5.40;1.98;;;20.80;80.30;;;;;;5039379;28;20645;-76
2022/06/14 13:53:40;;;;;;;3.03;1.40;;;20.70;79.70;;;;;;5029070;28;20228;-76
2022/06/14 13:56:40;;;;;;;4.60;1.83;;;20.90;81.40;;;;;;5037007;28;20300;-76
2022/06/14 13:59:35;;;;;;;4.75;1.80;;;20.90;80.00;;;;;;5049819;28;20216;-76
2022/06/14 14:02:33;;;;;;;5.45;1.58;;;20.70;81.20;;;;;;5051958;28;20241;-77
2022/06/14 14:05:30;;;;;;;7.30;1.95;;;20.80;81.10;;;;;;5051667;28;20674;-77
2022/06/14 14:08:27;;;;;;;5.13;1.52;;;20.70;80.80;;;;;;5067928;28;20707;-76
2022/06/14 14:11:27;;;;;;;3.88;1.75;;;20.60;81.40;;;;;;5060328;28;20239;-76
2022/06/14 14:14:30;;;;;;;3.42;1.33;;;20.50;80.20;;;;;;5058595;28;20226;-76
2022/06/14 14:17:31;;;;;;;6.00;1.80;;;20.30;80.30;;;;;;5067118;28;20226;-77
2022/06/14 14:20:42;;;;;;;9.77;1.73;;;20.20;80.50;;;;;;5052313;28;20228;-76
2022/06/14 14:23:48;;;;;;;4.60;1.75;;;20.30;81.50;;;;;;5046459;28;20220;-75
2022/06/14 14:26:44;;;;;;;3.45;1.42;;;20.20;80.90;;;;;;5042630;28;20336;-77
2022/06/14 14:29:39;;;;;;;5.43;1.95;;;20.40;81.10;;;;;;5045421;28;20228;-77
2022/06/14 14:32:35;;;;;;;5.03;1.40;;;20.50;81.80;;;;;;5042104;28;20224;-77
2022/06/14 14:35:28;;;;;;;3.92;1.52;;;20.20;80.50;;;;;;5040768;28;20231;-77
2022/06/14 14:38:23;;;;;;;6.47;1.60;;;20.20;80.70;;;;;;5040891;28;20377;-77
2022/06/14 14:41:33;;;;;;;3.75;1.40;;;20.20;81.00;;;;;;5048186;28;20229;-77
2022/06/14 14:44:28;;;;;;;5.38;2.10;;;20.20;81.50;;;;;;5043237;28;20223;-75
2022/06/14 14:47:22;;;;;;;5.30;2.00;;;20.20;82.70;;;;;;5044261;28;20221;-77
2022/06/14 15:20:13;;;;;;;3.72;1.90;;;19.40;83.60;;;;;;5064983;28;20216;-76
2022/06/14 15:23:02;;;;;;;3.63;1.67;;;19.30;84.10;;;;;;5059781;28;20223;-76
2022/06/14 15:25:51;;;;;;;4.45;1.70;;;19.30;84.00;;;;;;5059081;28;20235;-77
2022/06/14 15:28:46;;;;;;;8.38;2.00;;;19.20;84.40;;;;;;5065450;28;20361;-76
2022/06/14 15:31:48;;;;;;;3.33;1.60;;;19.30;84.30;;;;;;5056219;28;20683;-77
2022/06/14 15:34:43;;;;;;;6.05;1.92;;;19.50;85.30;;;;;;5055122;28;20220;-77
2022/06/14 15:37:34;;;;;;;5.45;1.80;;;19.50;84.20;;;;;;5054855;28;20224;-76
2022/06/14 17:39:07;;;;;;;5.60;2.05;;;18.10;96.90;;;;;;5070408;27;21118;-73
2022/06/14 17:41:59;;;;;;;5.72;2.25;;;18.10;97.00;;;;;;5077780;28;20227;-74
2022/06/14 17:44:56;;;;;;;3.80;2.00;;;18.00;96.60;;;;;;5080927;28;20246;-73
2022/06/14 17:47:52;;;;;;;7.03;2.10;;;18.00;97.80;;;;;;5100614;28;20740;-74
2022/06/14 17:50:45;;;;;;;6.47;2.08;;;18.00;97.60;;;;;;5079835;28;20710;-74
2022/06/14 17:53:43;;;;;;;4.05;1.60;;;18.10;98.40;;;;;;5071620;28;20231;-74
2022/06/14 17:56:48;;;;;;;4.03;1.67;;;18.00;98.90;;;;;;5075943;28;20302;-74
2022/06/14 17:59:50;;;;;;;7.22;2.30;;;18.00;97.40;;;;;;5096880;28;20689;-74
2022/06/14 18:02:49;;;;;;;4.60;2.60;;;18.00;97.90;;;;;;5099152;28;20589;-74
2022/06/14 18:05:52;;;;;;;5.93;2.35;;;17.90;98.60;;;;;;5082247;28;20227;-74
2022/06/14 18:08:51;;;;;;;5.85;2.15;;;17.90;99.10;;;;;;5102059;28;20706;-75
2022/06/14 18:11:52;;;;;;;3.58;2.00;;;17.80;97.30;;;;;;5090495;28;20573;-75
2022/06/14 18:14:47;;;;;;;5.00;2.00;;;17.90;98.60;;;;;;5100561;28;20226;-74
2022/06/14 18:17:38;;;;;;;4.47;1.77;;;17.80;98.10;;;;;;5079226;28;20527;-75
2022/06/14 18:23:58;;;;;;;4.93;1.83;;;17.80;98.80;;;;;;5092297;28;20239;-78
2022/06/14 18:27:09;;;;;;;5.68;2.08;;;17.80;99.40;;;;;;5091644;28;20265;-77
2022/06/14 18:30:00;;;;;;;5.70;1.63;;;17.70;99.50;;;;;;5097046;28;20451;-79
2022/06/14 18:33:00;;;;;;;7.68;2.22;;;17.60;99.60;;;;;;5097846;28;20215;-78
2022/06/14 18:35:55;;;;;;;3.58;2.00;;;17.50;99.90;;;;;;5084006;28;20468;-79
2022/06/14 18:38:47;;;;;;;4.40;1.95;;;17.50;99.90;;;;;;5099311;27;20288;-76
2022/06/14 18:41:41;;;;;;;7.60;2.22;;;17.60;99.90;;;;;;5076670;28;20233;-76
2022/06/14 18:44:34;;;;;;;6.63;2.00;;;17.40;99.90;;;;;;5083663;28;20238;-77
2022/06/14 18:47:34;;;;;;;5.18;1.70;;;17.40;99.90;;;;;;5062353;28;20219;-76
2022/06/14 18:50:31;;;;;;;4.68;1.77;;;17.40;99.90;;;;;;5053660;28;20717;-77
2022/06/14 18:53:34;;;;;;;4.72;1.80;;;17.30;99.90;;;;;;5057316;28;20235;-77
2022/06/14 18:56:28;;;;;;;6.55;2.13;;;17.40;99.90;;;;;;5059652;28;20568;-79
2022/06/14 18:59:20;;;;;;;7.30;3.38;;;17.40;99.90;;;;;;5064669;28;20307;-79
2022/06/14 19:02:40;;;;;;;6.75;2.45;;;17.40;99.90;;;;;;5069408;28;20220;-79
2022/06/14 19:05:53;;;;;;;5.47;2.05;;;17.40;99.90;;;;;;5082109;28;20224;-79
2022/06/14 19:08:57;;;;;;;7.80;2.20;;;17.40;99.90;;;;;;5040797;28;20216;-78
2022/06/14 19:11:57;;;;;;;5.97;1.80;;;17.30;99.90;;;;;;5063542;28;20251;-78
2022/06/14 19:15:21;;;;;;;7.30;2.50;;;17.20;99.90;;;;;;5056315;28;20337;-76
2022/06/14 19:18:31;;;;;;;8.25;2.58;;;17.20;99.90;;;;;;5035740;28;20830;-78
2022/06/14 19:21:58;;;;;;;6.05;2.20;;;17.10;99.90;;;;;;5057429;28;20208;-77
2022/06/14 19:25:02;;;;;;;6.30;2.38;;;17.10;99.90;;;;;;5082981;28;20736;-77
2022/06/14 19:28:01;;;;;;;5.78;3.00;;;17.10;99.90;;;;;;5081902;28;20274;-77